sensor_id;sensor_type;location;lat;lon;timestamp;P1;durP1;ratioP1;P2;durP2;ratioP2
60935;SDS011;46804;51.786;19.520;2022-12-10T00:02:25;53.28;;;21.83;;
60935;SDS011;46804;51.786;19.520;2022-12-10T00:06:27;51.53;;;20.60;;
60935;SDS011;46804;51.786;19.520;2022-12-10T00:10:30;52.28;;;20.25;;
60935;SDS011;46804;51.786;19.520;2022-12-10T00:14:30;37.45;;;16.33;;
60935;SDS011;46804;51.786;19.520;2022-12-10T00:18:31;39.78;;;18.05;;
60935;SDS011;46804;51.786;19.520;2022-12-10T00:22:32;42.05;;;18.50;;
60935;SDS011;46804;51.786;19.520;2022-12-10T00:26:36;44.00;;;17.50;;
60935;SDS011;46804;51.786;19.520;2022-12-10T00:30:38;44.70;;;18.38;;
60935;SDS011;46804;51.786;19.520;2022-12-10T00:34:39;41.85;;;18.63;;
60935;SDS011;46804;51.786;19.520;2022-12-10T00:38:40;40.92;;;17.80;;
60935;SDS011;46804;51.786;19.520;2022-12-10T00:42:41;39.15;;;17.48;;
60935;SDS011;46804;51.786;19.520;2022-12-10T00:46:42;44.80;;;17.70;;
60935;SDS011;46804;51.786;19.520;2022-12-10T00:50:43;45.38;;;18.10;;
60935;SDS011;46804;51.786;19.520;2022-12-10T00:54:43;44.10;;;16.60;;
60935;SDS011;46804;51.786;19.520;2022-12-10T00:58:44;45.17;;;18.42;;
60935;SDS011;46804;51.786;19.520;2022-12-10T01:02:46;51.03;;;20.92;;
60935;SDS011;46804;51.786;19.520;2022-12-10T01:06:48;43.10;;;18.67;;
60935;SDS011;46804;51.786;19.520;2022-12-10T01:10:52;51.67;;;19.60;;
60935;SDS011;46804;51.786;19.520;2022-12-10T01:14:53;45.38;;;17.80;;
60935;SDS011;46804;51.786;19.520;2022-12-10T01:18:55;35.67;;;16.70;;
60935;SDS011;46804;51.786;19.520;2022-12-10T01:22:56;39.90;;;17.35;;
60935;SDS011;46804;51.786;19.520;2022-12-10T01:26:57;43.05;;;15.85;;
60935;SDS011;46804;51.786;19.520;2022-12-10T01:31:01;43.47;;;18.85;;
60935;SDS011;46804;51.786;19.520;2022-12-10T01:35:12;38.78;;;18.75;;
60935;SDS011;46804;51.786;19.520;2022-12-10T01:39:14;42.17;;;17.95;;
60935;SDS011;46804;51.786;19.520;2022-12-10T01:43:16;31.83;;;15.00;;
60935;SDS011;46804;51.786;19.520;2022-12-10T01:47:17;45.33;;;20.15;;
60935;SDS011;46804;51.786;19.520;2022-12-10T01:51:18;43.40;;;18.60;;
60935;SDS011;46804;51.786;19.520;2022-12-10T01:59:51;36.53;;;17.95;;
60935;SDS011;46804;51.786;19.520;2022-12-10T02:12:18;36.38;;;18.08;;
60935;SDS011;46804;51.786;19.520;2022-12-10T02:16:40;34.58;;;16.27;;
60935;SDS011;46804;51.786;19.520;2022-12-10T02:20:45;41.65;;;18.55;;
60935;SDS011;46804;51.786;19.520;2022-12-10T02:24:49;49.72;;;19.75;;
60935;SDS011;46804;51.786;19.520;2022-12-10T02:29:01;44.33;;;19.52;;
60935;SDS011;46804;51.786;19.520;2022-12-10T02:33:07;47.92;;;16.98;;
60935;SDS011;46804;51.786;19.520;2022-12-10T02:37:14;41.25;;;19.20;;
60935;SDS011;46804;51.786;19.520;2022-12-10T02:41:26;38.85;;;17.77;;
60935;SDS011;46804;51.786;19.520;2022-12-10T02:45:30;39.45;;;17.50;;
60935;SDS011;46804;51.786;19.520;2022-12-10T02:49:32;43.88;;;17.75;;
60935;SDS011;46804;51.786;19.520;2022-12-10T02:53:40;44.20;;;19.30;;
60935;SDS011;46804;51.786;19.520;2022-12-10T03:02:08;46.33;;;19.98;;
60935;SDS011;46804;51.786;19.520;2022-12-10T03:06:25;46.13;;;18.80;;
60935;SDS011;46804;51.786;19.520;2022-12-10T03:10:50;48.20;;;18.77;;
60935;SDS011;46804;51.786;19.520;2022-12-10T03:14:58;40.53;;;15.80;;
60935;SDS011;46804;51.786;19.520;2022-12-10T03:23:03;41.30;;;16.50;;
60935;SDS011;46804;51.786;19.520;2022-12-10T03:27:07;40.70;;;17.15;;
60935;SDS011;46804;51.786;19.520;2022-12-10T03:31:10;43.83;;;18.08;;
60935;SDS011;46804;51.786;19.520;2022-12-10T03:35:14;41.47;;;18.77;;
60935;SDS011;46804;51.786;19.520;2022-12-10T03:39:16;51.45;;;20.92;;
60935;SDS011;46804;51.786;19.520;2022-12-10T03:43:17;41.25;;;18.55;;
60935;SDS011;46804;51.786;19.520;2022-12-10T03:47:18;48.35;;;18.27;;
60935;SDS011;46804;51.786;19.520;2022-12-10T03:51:19;42.97;;;19.33;;
60935;SDS011;46804;51.786;19.520;2022-12-10T03:55:20;46.55;;;16.95;;
60935;SDS011;46804;51.786;19.520;2022-12-10T03:59:21;52.65;;;20.10;;
60935;SDS011;46804;51.786;19.520;2022-12-10T04:03:21;49.22;;;19.95;;
60935;SDS011;46804;51.786;19.520;2022-12-10T04:07:22;53.58;;;20.42;;
60935;SDS011;46804;51.786;19.520;2022-12-10T04:11:23;49.67;;;20.08;;
60935;SDS011;46804;51.786;19.520;2022-12-10T04:15:23;52.35;;;22.73;;
60935;SDS011;46804;51.786;19.520;2022-12-10T04:19:43;56.10;;;21.83;;
60935;SDS011;46804;51.786;19.520;2022-12-10T04:23:43;63.40;;;23.73;;
60935;SDS011;46804;51.786;19.520;2022-12-10T04:28:03;52.88;;;19.85;;
60935;SDS011;46804;51.786;19.520;2022-12-10T04:32:03;55.70;;;22.45;;
60935;SDS011;46804;51.786;19.520;2022-12-10T04:36:04;51.83;;;20.50;;
60935;SDS011;46804;51.786;19.520;2022-12-10T04:40:05;42.90;;;17.95;;
60935;SDS011;46804;51.786;19.520;2022-12-10T04:44:07;64.18;;;21.77;;
60935;SDS011;46804;51.786;19.520;2022-12-10T04:48:08;57.72;;;21.35;;
60935;SDS011;46804;51.786;19.520;2022-12-10T04:52:10;54.17;;;20.23;;
60935;SDS011;46804;51.786;19.520;2022-12-10T04:56:12;62.15;;;21.17;;
60935;SDS011;46804;51.786;19.520;2022-12-10T05:00:13;57.65;;;20.77;;
60935;SDS011;46804;51.786;19.520;2022-12-10T05:04:15;50.30;;;20.10;;
60935;SDS011;46804;51.786;19.520;2022-12-10T05:08:17;59.88;;;23.27;;
60935;SDS011;46804;51.786;19.520;2022-12-10T05:12:17;65.72;;;22.83;;
60935;SDS011;46804;51.786;19.520;2022-12-10T05:16:19;82.88;;;18.08;;
60935;SDS011;46804;51.786;19.520;2022-12-10T05:20:21;59.93;;;21.27;;
60935;SDS011;46804;51.786;19.520;2022-12-10T05:24:22;62.17;;;23.65;;
60935;SDS011;46804;51.786;19.520;2022-12-10T05:28:22;51.47;;;19.90;;
60935;SDS011;46804;51.786;19.520;2022-12-10T05:32:23;64.22;;;21.38;;
60935;SDS011;46804;51.786;19.520;2022-12-10T05:36:25;63.38;;;21.33;;
60935;SDS011;46804;51.786;19.520;2022-12-10T05:40:27;62.00;;;20.23;;
60935;SDS011;46804;51.786;19.520;2022-12-10T05:44:28;56.90;;;20.40;;
60935;SDS011;46804;51.786;19.520;2022-12-10T05:48:29;59.65;;;22.42;;
60935;SDS011;46804;51.786;19.520;2022-12-10T05:52:30;51.60;;;19.30;;
60935;SDS011;46804;51.786;19.520;2022-12-10T05:56:31;61.22;;;20.40;;
60935;SDS011;46804;51.786;19.520;2022-12-10T06:00:32;60.10;;;21.08;;
60935;SDS011;46804;51.786;19.520;2022-12-10T06:04:32;50.70;;;19.15;;
60935;SDS011;46804;51.786;19.520;2022-12-10T06:08:33;56.10;;;19.13;;
60935;SDS011;46804;51.786;19.520;2022-12-10T06:12:34;49.65;;;17.63;;
60935;SDS011;46804;51.786;19.520;2022-12-10T06:16:35;60.92;;;19.35;;
60935;SDS011;46804;51.786;19.520;2022-12-10T06:20:38;45.45;;;18.55;;
60935;SDS011;46804;51.786;19.520;2022-12-10T06:24:39;52.08;;;19.00;;
60935;SDS011;46804;51.786;19.520;2022-12-10T06:28:40;57.38;;;20.75;;
60935;SDS011;46804;51.786;19.520;2022-12-10T06:32:41;59.58;;;17.73;;
60935;SDS011;46804;51.786;19.520;2022-12-10T06:36:45;52.08;;;20.20;;
60935;SDS011;46804;51.786;19.520;2022-12-10T06:40:45;42.90;;;17.98;;
60935;SDS011;46804;51.786;19.520;2022-12-10T06:44:46;54.33;;;19.63;;
60935;SDS011;46804;51.786;19.520;2022-12-10T06:48:47;56.92;;;20.60;;
60935;SDS011;46804;51.786;19.520;2022-12-10T06:52:47;49.38;;;17.60;;
60935;SDS011;46804;51.786;19.520;2022-12-10T07:00:51;38.57;;;16.40;;
60935;SDS011;46804;51.786;19.520;2022-12-10T07:04:52;65.15;;;20.88;;
60935;SDS011;46804;51.786;19.520;2022-12-10T07:08:56;62.58;;;18.67;;
60935;SDS011;46804;51.786;19.520;2022-12-10T07:12:57;50.75;;;18.83;;
60935;SDS011;46804;51.786;19.520;2022-12-10T07:16:58;52.17;;;18.52;;
60935;SDS011;46804;51.786;19.520;2022-12-10T07:20:58;53.22;;;19.85;;
60935;SDS011;46804;51.786;19.520;2022-12-10T07:24:59;61.38;;;19.48;;
60935;SDS011;46804;51.786;19.520;2022-12-10T07:29:00;55.00;;;20.05;;
60935;SDS011;46804;51.786;19.520;2022-12-10T07:33:01;45.92;;;17.85;;
60935;SDS011;46804;51.786;19.520;2022-12-10T07:37:01;44.55;;;18.90;;
60935;SDS011;46804;51.786;19.520;2022-12-10T07:41:09;52.17;;;18.20;;
60935;SDS011;46804;51.786;19.520;2022-12-10T07:45:11;49.10;;;18.83;;
60935;SDS011;46804;51.786;19.520;2022-12-10T07:49:12;46.30;;;18.80;;
60935;SDS011;46804;51.786;19.520;2022-12-10T07:53:12;46.63;;;19.30;;
60935;SDS011;46804;51.786;19.520;2022-12-10T07:57:13;49.15;;;19.77;;
60935;SDS011;46804;51.786;19.520;2022-12-10T08:01:16;46.03;;;16.63;;
60935;SDS011;46804;51.786;19.520;2022-12-10T08:05:19;50.63;;;19.75;;
60935;SDS011;46804;51.786;19.520;2022-12-10T08:09:20;49.97;;;18.65;;
60935;SDS011;46804;51.786;19.520;2022-12-10T08:13:21;48.97;;;20.27;;
60935;SDS011;46804;51.786;19.520;2022-12-10T08:17:21;53.35;;;19.02;;
60935;SDS011;46804;51.786;19.520;2022-12-10T08:21:23;36.53;;;16.23;;
60935;SDS011;46804;51.786;19.520;2022-12-10T08:25:25;41.15;;;17.52;;
60935;SDS011;46804;51.786;19.520;2022-12-10T08:29:26;41.20;;;17.27;;
60935;SDS011;46804;51.786;19.520;2022-12-10T08:33:26;44.08;;;19.00;;
60935;SDS011;46804;51.786;19.520;2022-12-10T08:37:27;41.88;;;17.90;;
60935;SDS011;46804;51.786;19.520;2022-12-10T08:41:28;39.33;;;17.00;;
60935;SDS011;46804;51.786;19.520;2022-12-10T08:45:28;46.30;;;19.08;;
60935;SDS011;46804;51.786;19.520;2022-12-10T08:49:29;49.22;;;17.52;;
60935;SDS011;46804;51.786;19.520;2022-12-10T08:53:29;43.78;;;17.33;;
60935;SDS011;46804;51.786;19.520;2022-12-10T08:57:30;37.50;;;17.25;;
60935;SDS011;46804;51.786;19.520;2022-12-10T09:01:31;48.67;;;17.42;;
60935;SDS011;46804;51.786;19.520;2022-12-10T09:05:32;43.63;;;18.90;;
60935;SDS011;46804;51.786;19.520;2022-12-10T09:09:34;58.50;;;21.73;;
60935;SDS011;46804;51.786;19.520;2022-12-10T09:13:35;45.25;;;20.90;;
60935;SDS011;46804;51.786;19.520;2022-12-10T09:17:36;39.67;;;16.67;;
60935;SDS011;46804;51.786;19.520;2022-12-10T09:21:38;48.55;;;16.90;;
60935;SDS011;46804;51.786;19.520;2022-12-10T09:25:39;44.83;;;19.50;;
60935;SDS011;46804;51.786;19.520;2022-12-10T09:29:39;42.85;;;16.98;;
60935;SDS011;46804;51.786;19.520;2022-12-10T09:33:40;46.85;;;19.00;;
60935;SDS011;46804;51.786;19.520;2022-12-10T09:37:41;45.97;;;18.10;;
60935;SDS011;46804;51.786;19.520;2022-12-10T09:46:10;37.53;;;18.33;;
60935;SDS011;46804;51.786;19.520;2022-12-10T09:50:51;56.53;;;19.50;;
60935;SDS011;46804;51.786;19.520;2022-12-10T09:55:09;41.00;;;15.57;;
60935;SDS011;46804;51.786;19.520;2022-12-10T09:59:20;42.05;;;16.30;;
60935;SDS011;46804;51.786;19.520;2022-12-10T10:03:24;42.83;;;17.50;;
60935;SDS011;46804;51.786;19.520;2022-12-10T10:07:26;41.28;;;18.67;;
60935;SDS011;46804;51.786;19.520;2022-12-10T10:11:31;45.70;;;19.63;;
60935;SDS011;46804;51.786;19.520;2022-12-10T10:15:34;44.22;;;17.65;;
60935;SDS011;46804;51.786;19.520;2022-12-10T10:19:37;58.88;;;21.90;;
60935;SDS011;46804;51.786;19.520;2022-12-10T10:23:39;46.22;;;17.77;;
60935;SDS011;46804;51.786;19.520;2022-12-10T10:27:44;44.08;;;16.02;;
60935;SDS011;46804;51.786;19.520;2022-12-10T10:31:45;44.10;;;17.38;;
60935;SDS011;46804;51.786;19.520;2022-12-10T10:35:53;49.00;;;18.50;;
60935;SDS011;46804;51.786;19.520;2022-12-10T10:39:57;44.65;;;17.02;;
60935;SDS011;46804;51.786;19.520;2022-12-10T10:43:59;47.80;;;18.60;;
60935;SDS011;46804;51.786;19.520;2022-12-10T10:52:16;43.45;;;15.65;;
60935;SDS011;46804;51.786;19.520;2022-12-10T10:56:59;43.25;;;15.57;;
60935;SDS011;46804;51.786;19.520;2022-12-10T11:00:46;47.97;;;17.13;;
60935;SDS011;46804;51.786;19.520;2022-12-10T11:05:23;43.58;;;16.90;;
60935;SDS011;46804;51.786;19.520;2022-12-10T11:09:29;45.42;;;18.80;;
60935;SDS011;46804;51.786;19.520;2022-12-10T11:13:33;37.42;;;14.77;;
60935;SDS011;46804;51.786;19.520;2022-12-10T11:17:35;40.28;;;17.55;;
60935;SDS011;46804;51.786;19.520;2022-12-10T11:21:47;48.05;;;17.77;;
60935;SDS011;46804;51.786;19.520;2022-12-10T11:30:01;44.15;;;16.83;;
60935;SDS011;46804;51.786;19.520;2022-12-10T11:38:29;42.90;;;15.55;;
60935;SDS011;46804;51.786;19.520;2022-12-10T11:47:37;42.95;;;17.33;;
60935;SDS011;46804;51.786;19.520;2022-12-10T11:51:57;39.22;;;16.70;;
60935;SDS011;46804;51.786;19.520;2022-12-10T11:56:13;40.05;;;15.65;;
60935;SDS011;46804;51.786;19.520;2022-12-10T12:00:26;39.10;;;15.57;;
60935;SDS011;46804;51.786;19.520;2022-12-10T12:04:46;42.33;;;16.17;;
60935;SDS011;46804;51.786;19.520;2022-12-10T12:09:17;38.78;;;16.77;;
60935;SDS011;46804;51.786;19.520;2022-12-10T12:18:18;41.80;;;15.75;;
60935;SDS011;46804;51.786;19.520;2022-12-10T12:22:27;36.40;;;14.65;;
60935;SDS011;46804;51.786;19.520;2022-12-10T12:26:35;37.42;;;15.18;;
60935;SDS011;46804;51.786;19.520;2022-12-10T12:30:38;34.70;;;15.63;;
60935;SDS011;46804;51.786;19.520;2022-12-10T12:34:59;39.55;;;14.88;;
60935;SDS011;46804;51.786;19.520;2022-12-10T12:39:20;42.60;;;16.70;;
60935;SDS011;46804;51.786;19.520;2022-12-10T12:51:58;48.38;;;18.02;;
60935;SDS011;46804;51.786;19.520;2022-12-10T13:00:22;40.63;;;15.15;;
60935;SDS011;46804;51.786;19.520;2022-12-10T13:04:24;43.70;;;14.65;;
60935;SDS011;46804;51.786;19.520;2022-12-10T13:08:28;32.35;;;14.98;;
60935;SDS011;46804;51.786;19.520;2022-12-10T13:24:59;36.35;;;15.25;;
60935;SDS011;46804;51.786;19.520;2022-12-10T13:33:24;43.88;;;17.92;;
60935;SDS011;46804;51.786;19.520;2022-12-10T13:37:29;34.50;;;15.63;;
60935;SDS011;46804;51.786;19.520;2022-12-10T13:41:32;37.00;;;15.57;;
60935;SDS011;46804;51.786;19.520;2022-12-10T13:45:51;47.22;;;15.65;;
60935;SDS011;46804;51.786;19.520;2022-12-10T14:07:30;41.33;;;15.73;;
60935;SDS011;46804;51.786;19.520;2022-12-10T14:11:32;31.60;;;14.05;;
60935;SDS011;46804;51.786;19.520;2022-12-10T14:15:38;45.40;;;16.25;;
60935;SDS011;46804;51.786;19.520;2022-12-10T14:19:38;39.03;;;14.77;;
60935;SDS011;46804;51.786;19.520;2022-12-10T14:23:44;44.33;;;17.02;;
60935;SDS011;46804;51.786;19.520;2022-12-10T14:27:52;36.80;;;16.00;;
60935;SDS011;46804;51.786;19.520;2022-12-10T14:31:53;45.83;;;16.00;;
60935;SDS011;46804;51.786;19.520;2022-12-10T14:35:54;46.83;;;18.75;;
60935;SDS011;46804;51.786;19.520;2022-12-10T14:39:55;44.83;;;18.60;;
60935;SDS011;46804;51.786;19.520;2022-12-10T14:43:55;48.55;;;16.58;;
60935;SDS011;46804;51.786;19.520;2022-12-10T14:48:01;52.70;;;16.92;;
60935;SDS011;46804;51.786;19.520;2022-12-10T14:52:17;46.40;;;17.10;;
60935;SDS011;46804;51.786;19.520;2022-12-10T15:00:32;49.05;;;17.38;;
60935;SDS011;46804;51.786;19.520;2022-12-10T15:04:43;52.10;;;17.95;;
60935;SDS011;46804;51.786;19.520;2022-12-10T15:08:47;42.70;;;18.40;;
60935;SDS011;46804;51.786;19.520;2022-12-10T15:12:49;60.75;;;18.63;;
60935;SDS011;46804;51.786;19.520;2022-12-10T15:16:51;45.90;;;17.77;;
60935;SDS011;46804;51.786;19.520;2022-12-10T15:21:03;39.13;;;17.92;;
60935;SDS011;46804;51.786;19.520;2022-12-10T15:25:17;65.13;;;22.40;;
60935;SDS011;46804;51.786;19.520;2022-12-10T15:33:32;52.92;;;18.73;;
60935;SDS011;46804;51.786;19.520;2022-12-10T15:37:38;56.75;;;15.38;;
60935;SDS011;46804;51.786;19.520;2022-12-10T15:41:44;52.05;;;17.48;;
60935;SDS011;46804;51.786;19.520;2022-12-10T15:45:49;58.33;;;18.15;;
60935;SDS011;46804;51.786;19.520;2022-12-10T15:49:51;65.47;;;20.13;;
60935;SDS011;46804;51.786;19.520;2022-12-10T15:53:53;47.27;;;18.57;;
60935;SDS011;46804;51.786;19.520;2022-12-10T15:57:53;46.60;;;15.95;;
60935;SDS011;46804;51.786;19.520;2022-12-10T16:02:01;49.22;;;18.52;;
60935;SDS011;46804;51.786;19.520;2022-12-10T16:06:03;54.88;;;17.02;;
60935;SDS011;46804;51.786;19.520;2022-12-10T16:10:04;56.25;;;19.27;;
60935;SDS011;46804;51.786;19.520;2022-12-10T16:14:05;58.10;;;18.60;;
60935;SDS011;46804;51.786;19.520;2022-12-10T16:18:07;46.47;;;17.15;;
60935;SDS011;46804;51.786;19.520;2022-12-10T16:22:10;56.28;;;19.13;;
60935;SDS011;46804;51.786;19.520;2022-12-10T16:34:22;51.00;;;18.45;;
60935;SDS011;46804;51.786;19.520;2022-12-10T16:38:23;50.03;;;17.08;;
60935;SDS011;46804;51.786;19.520;2022-12-10T16:42:24;41.70;;;14.93;;
60935;SDS011;46804;51.786;19.520;2022-12-10T16:46:26;38.72;;;15.48;;
60935;SDS011;46804;51.786;19.520;2022-12-10T16:50:26;50.22;;;16.58;;
60935;SDS011;46804;51.786;19.520;2022-12-10T16:54:27;51.97;;;17.38;;
60935;SDS011;46804;51.786;19.520;2022-12-10T16:58:28;38.55;;;15.35;;
60935;SDS011;46804;51.786;19.520;2022-12-10T17:02:28;53.28;;;15.93;;
60935;SDS011;46804;51.786;19.520;2022-12-10T17:06:29;42.45;;;15.55;;
60935;SDS011;46804;51.786;19.520;2022-12-10T17:10:29;54.25;;;17.27;;
60935;SDS011;46804;51.786;19.520;2022-12-10T17:14:49;39.70;;;15.48;;
60935;SDS011;46804;51.786;19.520;2022-12-10T17:18:51;44.70;;;15.52;;
60935;SDS011;46804;51.786;19.520;2022-12-10T17:22:51;51.22;;;18.00;;
60935;SDS011;46804;51.786;19.520;2022-12-10T17:26:55;60.57;;;18.50;;
60935;SDS011;46804;51.786;19.520;2022-12-10T17:30:59;44.13;;;16.10;;
60935;SDS011;46804;51.786;19.520;2022-12-10T17:34:59;56.53;;;19.80;;
60935;SDS011;46804;51.786;19.520;2022-12-10T17:39:00;59.65;;;18.73;;
60935;SDS011;46804;51.786;19.520;2022-12-10T17:43:00;62.35;;;19.77;;
60935;SDS011;46804;51.786;19.520;2022-12-10T17:47:01;44.38;;;17.20;;
60935;SDS011;46804;51.786;19.520;2022-12-10T17:51:13;39.67;;;14.45;;
60935;SDS011;46804;51.786;19.520;2022-12-10T17:55:13;46.30;;;16.02;;
60935;SDS011;46804;51.786;19.520;2022-12-10T17:59:14;47.67;;;18.17;;
60935;SDS011;46804;51.786;19.520;2022-12-10T18:03:15;45.97;;;17.50;;
60935;SDS011;46804;51.786;19.520;2022-12-10T18:07:17;38.08;;;15.85;;
60935;SDS011;46804;51.786;19.520;2022-12-10T18:11:19;43.60;;;16.65;;
60935;SDS011;46804;51.786;19.520;2022-12-10T18:15:23;52.25;;;17.00;;
60935;SDS011;46804;51.786;19.520;2022-12-10T18:19:24;39.28;;;16.55;;
60935;SDS011;46804;51.786;19.520;2022-12-10T18:23:25;35.47;;;14.57;;
60935;SDS011;46804;51.786;19.520;2022-12-10T18:27:25;41.33;;;18.70;;
60935;SDS011;46804;51.786;19.520;2022-12-10T18:31:27;32.00;;;15.70;;
60935;SDS011;46804;51.786;19.520;2022-12-10T18:35:29;46.28;;;17.83;;
60935;SDS011;46804;51.786;19.520;2022-12-10T18:39:31;43.13;;;16.38;;
60935;SDS011;46804;51.786;19.520;2022-12-10T18:43:34;34.42;;;15.48;;
60935;SDS011;46804;51.786;19.520;2022-12-10T18:47:35;45.55;;;16.73;;
60935;SDS011;46804;51.786;19.520;2022-12-10T18:51:36;27.23;;;13.23;;
60935;SDS011;46804;51.786;19.520;2022-12-10T18:55:36;41.17;;;16.05;;
60935;SDS011;46804;51.786;19.520;2022-12-10T18:59:37;36.53;;;14.57;;
60935;SDS011;46804;51.786;19.520;2022-12-10T19:03:38;37.20;;;14.30;;
60935;SDS011;46804;51.786;19.520;2022-12-10T19:07:38;44.90;;;15.35;;
60935;SDS011;46804;51.786;19.520;2022-12-10T19:11:39;33.30;;;12.80;;
60935;SDS011;46804;51.786;19.520;2022-12-10T19:15:40;40.35;;;15.45;;
60935;SDS011;46804;51.786;19.520;2022-12-10T19:19:40;37.13;;;12.70;;
60935;SDS011;46804;51.786;19.520;2022-12-10T19:23:41;28.65;;;13.25;;
60935;SDS011;46804;51.786;19.520;2022-12-10T19:27:41;40.00;;;17.88;;
60935;SDS011;46804;51.786;19.520;2022-12-10T19:31:42;44.42;;;16.83;;
60935;SDS011;46804;51.786;19.520;2022-12-10T19:35:44;45.50;;;15.32;;
60935;SDS011;46804;51.786;19.520;2022-12-10T19:39:45;42.42;;;15.05;;
60935;SDS011;46804;51.786;19.520;2022-12-10T19:43:46;49.33;;;16.40;;
60935;SDS011;46804;51.786;19.520;2022-12-10T19:47:47;39.03;;;14.82;;
60935;SDS011;46804;51.786;19.520;2022-12-10T19:51:52;40.33;;;16.30;;
60935;SDS011;46804;51.786;19.520;2022-12-10T19:55:53;31.75;;;14.40;;
60935;SDS011;46804;51.786;19.520;2022-12-10T19:59:53;38.20;;;15.63;;
60935;SDS011;46804;51.786;19.520;2022-12-10T20:03:54;29.90;;;12.65;;
60935;SDS011;46804;51.786;19.520;2022-12-10T20:07:56;35.95;;;13.57;;
60935;SDS011;46804;51.786;19.520;2022-12-10T20:11:57;20.83;;;9.93;;
60935;SDS011;46804;51.786;19.520;2022-12-10T20:15:57;20.23;;;10.65;;
60935;SDS011;46804;51.786;19.520;2022-12-10T20:19:58;31.90;;;12.35;;
60935;SDS011;46804;51.786;19.520;2022-12-10T20:23:58;19.80;;;10.18;;
60935;SDS011;46804;51.786;19.520;2022-12-10T20:27:59;28.88;;;11.60;;
60935;SDS011;46804;51.786;19.520;2022-12-10T20:32:01;24.35;;;10.90;;
60935;SDS011;46804;51.786;19.520;2022-12-10T20:36:03;31.95;;;13.68;;
60935;SDS011;46804;51.786;19.520;2022-12-10T20:40:05;25.42;;;11.43;;
60935;SDS011;46804;51.786;19.520;2022-12-10T20:44:06;30.38;;;13.52;;
60935;SDS011;46804;51.786;19.520;2022-12-10T20:48:08;27.52;;;11.57;;
60935;SDS011;46804;51.786;19.520;2022-12-10T20:52:09;25.33;;;12.18;;
60935;SDS011;46804;51.786;19.520;2022-12-10T20:56:14;28.60;;;11.68;;
60935;SDS011;46804;51.786;19.520;2022-12-10T21:00:18;28.05;;;12.35;;
60935;SDS011;46804;51.786;19.520;2022-12-10T21:04:20;29.02;;;12.55;;
60935;SDS011;46804;51.786;19.520;2022-12-10T21:08:20;28.15;;;12.70;;
60935;SDS011;46804;51.786;19.520;2022-12-10T21:12:21;30.60;;;14.57;;
60935;SDS011;46804;51.786;19.520;2022-12-10T21:16:22;31.83;;;13.52;;
60935;SDS011;46804;51.786;19.520;2022-12-10T21:20:24;27.97;;;14.57;;
60935;SDS011;46804;51.786;19.520;2022-12-10T21:24:25;31.38;;;13.20;;
60935;SDS011;46804;51.786;19.520;2022-12-10T21:28:26;36.15;;;16.23;;
60935;SDS011;46804;51.786;19.520;2022-12-10T21:32:26;33.72;;;14.38;;
60935;SDS011;46804;51.786;19.520;2022-12-10T21:36:27;33.67;;;14.55;;
60935;SDS011;46804;51.786;19.520;2022-12-10T21:40:28;28.02;;;14.48;;
60935;SDS011;46804;51.786;19.520;2022-12-10T21:44:29;30.88;;;11.93;;
60935;SDS011;46804;51.786;19.520;2022-12-10T21:48:29;21.17;;;10.65;;
60935;SDS011;46804;51.786;19.520;2022-12-10T21:52:30;28.80;;;13.05;;
60935;SDS011;46804;51.786;19.520;2022-12-10T21:56:31;25.45;;;12.15;;
60935;SDS011;46804;51.786;19.520;2022-12-10T22:00:31;31.17;;;12.90;;
60935;SDS011;46804;51.786;19.520;2022-12-10T22:04:32;32.53;;;13.63;;
60935;SDS011;46804;51.786;19.520;2022-12-10T22:08:33;29.35;;;12.70;;
60935;SDS011;46804;51.786;19.520;2022-12-10T22:12:34;30.08;;;12.65;;
60935;SDS011;46804;51.786;19.520;2022-12-10T22:16:34;34.75;;;14.48;;
60935;SDS011;46804;51.786;19.520;2022-12-10T22:20:36;28.52;;;13.02;;
60935;SDS011;46804;51.786;19.520;2022-12-10T22:24:37;31.50;;;13.15;;
60935;SDS011;46804;51.786;19.520;2022-12-10T22:28:38;24.65;;;10.18;;
60935;SDS011;46804;51.786;19.520;2022-12-10T22:32:38;28.73;;;12.55;;
60935;SDS011;46804;51.786;19.520;2022-12-10T22:36:41;29.00;;;14.85;;
60935;SDS011;46804;51.786;19.520;2022-12-10T22:40:42;31.63;;;13.38;;
60935;SDS011;46804;51.786;19.520;2022-12-10T22:44:42;29.13;;;13.73;;
60935;SDS011;46804;51.786;19.520;2022-12-10T22:48:43;35.85;;;14.65;;
60935;SDS011;46804;51.786;19.520;2022-12-10T22:52:43;24.83;;;13.60;;
60935;SDS011;46804;51.786;19.520;2022-12-10T22:56:44;31.63;;;13.60;;
60935;SDS011;46804;51.786;19.520;2022-12-10T23:00:45;30.85;;;15.32;;
60935;SDS011;46804;51.786;19.520;2022-12-10T23:04:49;30.38;;;14.20;;
60935;SDS011;46804;51.786;19.520;2022-12-10T23:08:50;32.33;;;14.38;;
60935;SDS011;46804;51.786;19.520;2022-12-10T23:12:51;33.95;;;14.90;;
60935;SDS011;46804;51.786;19.520;2022-12-10T23:17:07;30.73;;;14.20;;
60935;SDS011;46804;51.786;19.520;2022-12-10T23:21:14;34.38;;;13.38;;
60935;SDS011;46804;51.786;19.520;2022-12-10T23:25:17;43.53;;;15.45;;
60935;SDS011;46804;51.786;19.520;2022-12-10T23:29:17;36.58;;;15.85;;
60935;SDS011;46804;51.786;19.520;2022-12-10T23:33:18;30.98;;;13.38;;
60935;SDS011;46804;51.786;19.520;2022-12-10T23:37:19;35.35;;;13.38;;
60935;SDS011;46804;51.786;19.520;2022-12-10T23:41:19;26.08;;;13.30;;
60935;SDS011;46804;51.786;19.520;2022-12-10T23:45:20;29.88;;;13.27;;
60935;SDS011;46804;51.786;19.520;2022-12-10T23:49:22;28.75;;;13.80;;
60935;SDS011;46804;51.786;19.520;2022-12-10T23:53:23;33.53;;;13.80;;
60935;SDS011;46804;51.786;19.520;2022-12-10T23:57:24;36.03;;;15.98;;
